Weather observations for the past three days for
Ortonville, Ortonville Muncipal-Martinson Field Airport
Imperial (Metric)
Date Time (cdt) Wind (mph) Vis. (mi.) Weather Sky Cond. Temperature (ºF) Relative Humidity Wind Chill (°F) Heat Index (°F) Pressure Precipitation (in)
Air Dwpt 6 hour altimeter (in) sea level (mb) 1 hr 3 hr 6 hr
Max. Min.
03 09:55 S 7 10.00 Fair CLR 75.2 69.8 83% 75 29.77 0.0
03 09:35 SE 7 10.00 Fair CLR 75.2 69.8 83% 75 29.76 0.0
03 09:15 SE 9 10.00 Fair CLR 73.4 69.8 89% 29.76 0.0
03 08:55 SE 6 10.00 Partly Cloudy SCT100 71.6 69.8 94% 29.76 0.0
03 08:35 E 9 10.00 Partly Cloudy SCT100 71.6 69.8 94% 29.76 0.0
03 08:15 SE 7 10.00 Fair CLR 69.8 69.8 100% 29.76 0.0
03 07:55 SE 9 10.00 Fair CLR 69.8 69.8 100% 29.76 0.0
03 07:35 E 8 10.00 Fair CLR 69.8 68 94% 29.77 0.0
03 07:15 E 6 10.00 Fair CLR 68 66.2 94% 29.77 0.0
03 06:55 E 8 10.00 Fair CLR 68 66.2 94% 29.77 0.0
03 06:35 E 7 10.00 Fair CLR 68 66.2 94% 29.77 0.0
03 06:15 E 7 10.00 Fair CLR 68 66.2 94% 29.78 0.0
03 05:55 E 5 10.00 Fair CLR 66.2 66.2 100% 29.79 0.0
03 05:35 E 5 10.00 Fair CLR 66.2 66.2 100% 29.79 0.0
03 05:15 E 3 10.00 Fair CLR 66.2 66.2 100% 29.78 0.0
03 04:55 E 6 10.00 Fair CLR 66.2 64.4 94% 29.78 0.0
03 04:35 E 7 10.00 Fair CLR 66.2 64.4 94% 29.79 0.0
03 04:15 E 6 10.00 Fair CLR 68 66.2 94% 29.79 0.0
03 03:55 E 6 10.00 Fair CLR 68 64.4 88% 29.79 0.0
03 03:35 E 7 10.00 Fair CLR 68 64.4 88% 29.8 0.0
03 03:15 E 6 10.00 Fair CLR 68 66.2 94% 29.8 0.0
03 02:55 E 5 10.00 Fair CLR 68 66.2 94% 29.8 0.0
03 02:35 E 3 10.00 Fair CLR 68 64.4 88% 29.81 0.0
03 02:15 E 7 10.00 Fair CLR 69.8 66.2 88% 29.82 0.0
03 01:55 E 6 10.00 Fair CLR 69.8 66.2 88% 29.82 0.0
03 01:35 E 6 10.00 Fair CLR 69.8 66.2 88% 29.82 0.0
03 01:15 NE 3 10.00 Fair CLR 69.8 66.2 88% 29.83 0.0
03 00:55 E 7 10.00 Fair CLR 71.6 66.2 83% 29.83 0.0
03 00:35 E 6 10.00 Fair CLR 71.6 66.2 83% 29.83 0.0
03 00:15 E 6 10.00 Fair CLR 71.6 68 88% 29.83 0.0
02 23:55 E 5 10.00 Fair CLR 71.6 68 88% 29.83 0.0
02 23:35 NE 6 10.00 Fair CLR 71.6 69.8 94% 29.84 0.0
02 23:15 E 5 10.00 Fair CLR 71.6 68 88% 29.84 0.0
02 22:55 E 7 10.00 Fair CLR 73.4 69.8 89% 29.84 0.0
02 22:35 E 7 10.00 Fair CLR 73.4 69.8 89% 29.85 0.0
02 22:15 E 7 10.00 Partly Cloudy SCT038 73.4 69.8 89% 29.85 0.0
02 21:55 E 7 10.00 Partly Cloudy SCT038 75.2 69.8 83% 75 29.85 0.0
02 21:35 E 7 10.00 Partly Cloudy SCT040 73.4 69.8 89% 29.85 0.0
02 21:15 E 6 10.00 Partly Cloudy SCT040 73.4 69.8 89% 29.85 0.0
02 20:55 E 7 10.00 Partly Cloudy SCT042 75.2 68 78% 76 29.84 0.0
02 20:35 E 6 10.00 Fair CLR 75.2 68 78% 76 29.84 0.0
02 20:15 E 5 10.00 Fair CLR 77 68 74% 79 29.83 0.0
02 19:55 E 7 10.00 Fair CLR 78.8 66.2 65% 81 29.83 0.0
02 19:35 E 6 10.00 Partly Cloudy SCT050 80.6 66.2 62% 83 29.83 0.0
02 19:15 E 7 10.00 Partly Cloudy SCT050 82.4 66.2 58% 85 29.83 0.0
02 18:55 E 9 10.00 Fair CLR 82.4 66.2 58% 85 29.83 0.0
02 18:35 E 7 10.00 Fair CLR 82.4 64.4 55% 84 29.83 0.0
02 18:15 E 10 10.00 Fair CLR 84.2 64.4 51% 86 29.83 0.0
02 17:55 SE 8 10.00 Fair CLR 84.2 62.6 48% 85 29.83 0.0
02 17:35 E 9 10.00 Fair CLR 84.2 62.6 48% 85 29.83 0.0
02 17:15 E 8 10.00 Fair CLR 84.2 62.6 48% 85 29.83 0.0
02 16:55 E 7 10.00 Fair CLR 84.2 62.6 48% 85 29.84 0.0
02 16:35 E 9 10.00 Fair CLR 84.2 62.6 48% 85 29.84 0.0
02 16:15 E 7 10.00 Fair CLR 84.2 60.8 45% 84 29.85 0.0
02 15:55 E 10 10.00 Fair CLR 84.2 62.6 48% 85 29.85 0.0
02 15:35 E 7 10.00 Fair CLR 84.2 62.6 48% 85 29.85 0.0
02 15:15 E 7 10.00 Fair CLR 84.2 60.8 45% 84 29.86 0.0
02 14:55 E 7 10.00 Fair CLR 84.2 60.8 45% 84 29.87 0.0
02 14:35 E 8 10.00 Partly Cloudy SCT100 84.2 60.8 45% 84 29.88 0.0
02 14:15 E 7 10.00 Partly Cloudy SCT080 SCT100 82.4 60.8 48% 83 29.88 0.0
02 13:55 E 6 10.00 Partly Cloudy SCT080 82.4 60.8 48% 83 29.89 0.0
02 13:35 E 9 10.00 Partly Cloudy SCT100 82.4 59 45% 82 29.89 0.0
02 13:15 E 9 10.00 Partly Cloudy SCT090 82.4 59 45% 82 29.9 0.0
02 12:55 E 10 10.00 Partly Cloudy SCT080 80.6 60.8 51% 81 29.9 0.0
02 12:35 NE 8 10.00 Partly Cloudy SCT090 80.6 60.8 51% 81 29.91 0.0
02 12:15 E 8 10.00 Partly Cloudy SCT090 78.8 60.8 54% 80 29.91 0.0
02 11:55 E 6 10.00 Partly Cloudy SCT090 78.8 62.6 58% 80 29.91 0.0
02 11:35 NE 5 10.00 Partly Cloudy SCT100 78.8 62.6 58% 80 29.91 0.0
02 11:15 E 5 10.00 Fair CLR 77 64.4 65% 79 29.9 0.0
02 10:55 E 3 10.00 Fair CLR 73.4 64.4 74% 29.91 0.0
02 10:35 E 3 10.00 Fair CLR 73.4 64.4 74% 29.91 0.0
02 10:15 NE 3 10.00 Fair CLR 71.6 64.4 78% 29.91 0.0
02 09:55 Calm 10.00 Fair CLR 69.8 64.4 83% 29.92 0.0
02 09:35 E 3 10.00 NULL NULL 68 66.2 94% 29.91 0.0
02 09:15 Calm 10.00 NULL NULL 66.2 64.4 94% 29.93 0.0
02 08:55 Calm 10.00 Fair CLR 66.2 64.4 94% 29.94 0.0
02 08:35 N 5 10.00 NULL NULL 64.4 64.4 100% 29.93 0.0
02 08:15 Calm 10.00 Light Drizzle NULL 64.4 64.4 100% 29.93 0.0
02 07:55 Calm 10.00 Light Rain CLR 64.4 62.6 94% 29.93 0.0
02 07:35 Calm 10.00 Fair CLR 64.4 62.6 94% 29.93 0.0
02 07:15 N 3 10.00 Fair CLR 62.6 62.6 100% 29.92 0.0
02 06:55 Calm 10.00 Fair CLR 60.8 60.8 100% 29.93 0.0
02 06:35 N 5 10.00 NULL NULL 60.8 60.8 100% 29.92 0.0
02 06:15 Calm 10.00 Fair CLR 60.8 60.8 100% 29.92 0.0
02 05:55 Calm 10.00 Fair CLR 62.6 62.6 100% 29.92 0.0
02 05:35 N 6 10.00 NULL NULL 60.8 60.8 100% 29.92 0.0
02 05:15 Calm 10.00 NULL NULL 60.8 60.8 100% 29.92 0.0
02 04:55 Calm 10.00 NULL NULL 60.8 60.8 100% 29.93 0.0
02 04:35 Calm 10.00 Fair CLR 60.8 60.8 100% 29.93 0.0
02 04:15 Calm 10.00 NULL NULL 62.6 60.8 94% 29.93 0.0
02 03:55 Calm 10.00 NULL NULL 62.6 60.8 94% 29.93 0.0
02 03:35 SE 3 10.00 NULL NULL 62.6 60.8 94% 29.93 0.0
02 03:15 Calm 10.00 NULL NULL 62.6 60.8 94% 29.93 0.0
02 02:55 Calm 10.00 Mostly Cloudy BKN110 62.6 60.8 94% 29.93 0.0
02 02:35 Calm 10.00 Fair CLR 64.4 60.8 88% 29.92 0.0
02 02:15 Calm 10.00 Fair CLR 62.6 60.8 94% 29.91 0.0
02 01:55 N 5 10.00 Fair CLR 62.6 60.8 94% 29.9 0.0
02 01:35 Calm 10.00 Fair CLR 64.4 60.8 88% 29.91 0.0
02 01:15 Calm 10.00 Fair CLR 64.4 62.6 94% 29.91 0.0
02 00:55 Calm 10.00 Fair CLR 64.4 62.6 94% 29.91 0.0
02 00:35 Calm 10.00 Partly Cloudy SCT110 66.2 62.6 88% 29.92 0.0
02 00:15 Calm 10.00 Partly Cloudy SCT110 64.4 64.4 100% 29.92 0.0
01 23:55 Calm 10.00 NULL NULL 68 62.6 83% 29.93 0.0
01 23:35 NE 5 10.00 Mostly Cloudy BKN110 66.2 62.6 88% 29.92 0.0
01 23:15 N 8 10.00 Overcast OVC110 68 64.4 88% 29.92 0.0
01 22:55 NE 5 10.00 Overcast OVC110 68 64.4 88% 29.94 0.0
01 22:35 N 7 10.00 Overcast SCT070 OVC100 69.8 66.2 88% 29.94 0.0
01 22:15 Calm 10.00 Overcast OVC100 69.8 66.2 88% 29.95 0.0
01 21:55 Calm 10.00 Mostly Cloudy BKN100 71.6 64.4 78% 29.95 0.0
01 21:35 Calm 10.00 Mostly Cloudy BKN110 69.8 66.2 88% 29.94 0.0
01 21:15 Calm 10.00 Mostly Cloudy BKN110 69.8 66.2 88% 29.94 0.0
01 20:55 Calm 10.00 Mostly Cloudy BKN110 69.8 66.2 88% 29.93 0.0
01 20:35 Calm 10.00 Partly Cloudy SCT065 SCT085 71.6 66.2 83% 29.93 0.0
01 20:15 Calm 10.00 Fair CLR 71.6 64.4 78% 29.92 0.0
01 19:55 Calm 10.00 Light Drizzle CLR 71.6 69.8 94% 29.93 0.0
01 19:35 Calm 10.00 Light Rain CLR 71.6 64.4 78% 29.93 0.0
01 19:15 Calm 10.00 Light Drizzle CLR 73.4 66.2 78% 29.94 0.0
01 18:55 Calm 10.00 Partly Cloudy SCT100 73.4 64.4 74% 29.94 0.0
01 18:35 Calm 10.00 Light Rain SCT100 73.4 66.2 78% 29.94 0.0
01 18:15 NE 3 10.00 Partly Cloudy SCT100 75.2 62.6 65% 77 29.92 0.0
01 17:55 Calm 10.00 Partly Cloudy SCT100 75.2 62.6 65% 77 29.94 0.0
01 17:35 N 5 10.00 Partly Cloudy SCT100 78.8 62.6 58% 80 29.94 0.0
01 17:15 Calm 10.00 Partly Cloudy SCT070 SCT100 78.8 59 51% 80 29.96 0.0
01 16:55 Calm 10.00 Partly Cloudy SCT070 78.8 60.8 54% 80 29.97 0.0
01 16:35 Calm 10.00 Partly Cloudy SCT070 78.8 60.8 54% 80 29.97 0.0
01 16:15 Calm 10.00 Fair CLR 78.8 60.8 54% 80 29.97 0.0
01 15:55 Calm 10.00 Partly Cloudy SCT070 78.8 59 51% 80 29.96 0.0
01 15:35 Calm 10.00 Partly Cloudy SCT070 78.8 57.2 48% 80 29.97 0.0
01 15:15 N 5 10.00 Fair CLR 78.8 59 51% 80 29.96 0.0
01 14:55 NE 3 10.00 Fair CLR 78.8 59 51% 80 29.97 0.0
01 14:35 Calm 10.00 Fair CLR 78.8 59 51% 80 29.97 0.0
01 14:15 NE 5 10.00 Fair CLR 77 60.8 57% 79 29.97 0.0
01 13:55 NE 6 10.00 Fair CLR 77 60.8 57% 79 29.96 0.0
01 13:35 NE 5 10.00 Fair CLR 77 60.8 57% 79 29.97 0.0
01 13:15 NE 5 10.00 Fair CLR 77 60.8 57% 79 29.97 0.0
01 12:55 NE 5 10.00 Fair CLR 75.2 57.2 54% 78 29.98 0.0
01 12:35 NE 3 10.00 Fair CLR 75.2 57.2 54% 78 29.98 0.0
01 12:15 NE 3 10.00 Fair CLR 73.4 59 61% 29.99 0.0
01 11:55 Calm 10.00 Fair CLR 73.4 60.8 65% 29.99 0.0
01 11:35 Calm 10.00 Fair CLR 73.4 60.8 65% 29.99 0.0
01 11:15 Calm 10.00 Fair CLR 73.4 60.8 65% 29.99 0.0
01 10:55 Calm 10.00 Fair CLR 71.6 60.8 69% 30 0.0
01 10:35 Calm 10.00 Fair CLR 69.8 60.8 73% 30 0.0
01 10:15 Calm 10.00 Fair CLR 69.8 60.8 73% 29.99 0.0
01 09:55 Calm 10.00 Fair CLR 68 60.8 78% 30 0.0
01 09:35 Calm 10.00 Fair CLR 66.2 60.8 83% 30 0.0
01 09:15 Calm 10.00 Fair CLR 66.2 59 78% 30 0.0
01 08:55 N 3 10.00 Fair CLR 66.2 59 78% 30 0.0
01 08:35 N 3 10.00 Fair CLR 66.2 59 78% 30 0.0
01 08:15 N 6 10.00 Fair CLR 64.4 59 83% 29.99 0.0
01 07:55 NW 3 10.00 Fair CLR 62.6 59 88% 30 0.0
01 07:35 N 5 10.00 Fair CLR 57.2 55.4 94% 29.98 0.0
01 07:15 Calm 10.00 Fair CLR 55.4 53.6 94% 29.98 0.0
01 06:55 NW 5 10.00 Fair CLR 55.4 53.6 94% 29.97 0.0
01 06:35 Calm 10.00 Fair CLR 57.2 55.4 94% 29.97 0.0
01 06:15 W 3 10.00 Fair CLR 57.2 55.4 94% 29.97 0.0
01 05:55 Calm 10.00 Fair CLR 57.2 55.4 94% 29.96 0.0
01 05:35 Calm 10.00 Fair CLR 57.2 55.4 94% 29.95 0.0
01 05:15 S 3 10.00 Fair CLR 57.2 55.4 94% 29.95 0.0
01 04:55 Calm 10.00 Fair CLR 57.2 55.4 94% 29.95 0.0
01 04:35 Calm 10.00 Fair CLR 59 55.4 88% 29.95 0.0
01 04:15 NW 5 10.00 Fair CLR 64.4 57.2 78% 29.94 0.0
01 03:55 NW 6 10.00 Fair CLR 60.8 55.4 83% 29.94 0.0
01 03:35 Calm 10.00 Fair CLR 60.8 55.4 83% 29.93 0.0
01 03:15 Calm 10.00 Fair CLR 62.6 55.4 77% 29.93 0.0
01 02:55 W 5 10.00 Fair CLR 64.4 57.2 78% 29.95 0.0
01 02:35 W 3 10.00 Fair CLR 64.4 57.2 78% 29.93 0.0
01 02:15 W 3 10.00 Fair CLR 64.4 57.2 78% 29.94 0.0
01 01:55 Calm 10.00 Fair CLR 64.4 57.2 78% 29.94 0.0
01 01:35 S 5 10.00 Fair CLR 64.4 57.2 78% 29.95 0.0
01 01:15 S 5 10.00 Fair CLR 64.4 59 83% 29.95 0.0
01 00:55 SW 6 10.00 Fair CLR 64.4 59 83% 29.95 0.0
01 00:35 S 5 10.00 Fair CLR 66.2 59 78% 29.95 0.0
01 00:15 W 5 10.00 Fair CLR 68 59 73% 29.95 0.0
31 23:55 W 6 10.00 Fair CLR 66.2 60.8 83% 29.94 0.0
31 23:35 W 6 10.00 Fair CLR 68 60.8 78% 29.95 0.0
31 23:15 W 3 10.00 Fair CLR 71.6 60.8 69% 29.94 0.0
31 22:55 W 7 10.00 Fair CLR 71.6 60.8 69% 29.94 0.0
31 22:35 W 7 10.00 Fair CLR 69.8 57.2 64% 29.94 0.0
31 22:15 Calm 10.00 Fair CLR 71.6 57.2 61% 29.93 0.0
31 21:55 SW 3 10.00 Fair CLR 71.6 57.2 61% 29.93 0.0
31 21:35 S 5 10.00 Fair CLR 68 60.8 78% 29.93 0.0
31 21:15 Calm 10.00 Fair CLR 69.8 60.8 73% 29.92 0.0
31 20:55 Calm 10.00 Fair CLR 71.6 62.6 73% 29.91 0.0
31 20:35 Calm 10.00 Fair CLR 73.4 62.6 69% 29.91 0.0
31 20:15 Calm 10.00 Fair CLR 75.2 57.2 54% 78 29.91 0.0
31 19:55 Calm 10.00 Fair CLR 78.8 55.4 45% 79 29.9 0.0
31 19:35 Calm 10.00 Fair CLR 78.8 59 51% 80 29.9 0.0
31 19:15 Calm 10.00 Fair CLR 80.6 57.2 45% 81 29.9 0.0
31 18:55 Calm 10.00 Fair CLR 80.6 57.2 45% 81 29.9 0.0
31 18:35 Calm 10.00 Fair CLR 82.4 57.2 42% 82 29.9 0.0
31 18:15 Calm 10.00 Fair CLR 84.2 48.2 29% 82 29.9 0.0
31 17:55 S 5 10.00 Fair CLR 86 48.2 27% 83 29.9 0.0
31 17:35 Calm 10.00 Fair CLR 87.8 50 27% 85 29.9 0.0
31 17:15 NW 5 10.00 Fair CLR 87.8 48.2 25% 85 29.9 0.0
31 16:55 W 5 10.00 Fair CLR 87.8 51.8 29% 85 29.9 0.0
31 16:35 W 7 10.00 Fair CLR 86 51.8 31% 84 29.9 0.0
31 16:15 NW 5 10.00 Fair CLR 86 55.4 35% 85 29.91 0.0
31 15:55 NW 5 10.00 Fair CLR 86 57.2 38% 85 29.9 0.0
31 15:35 S 5 10.00 Fair CLR 84.2 57.2 40% 83 29.91 0.0
31 15:15 W 5 10.00 Fair CLR 84.2 57.2 40% 83 29.91 0.0
31 14:55 NW 5 10.00 Fair CLR 82.4 57.2 42% 82 29.91 0.0
31 14:35 NW 5 10.00 Fair CLR 82.4 57.2 42% 82 29.92 0.0
31 14:15 NW 5 10.00 Fair CLR 80.6 55.4 42% 81 29.92 0.0
31 13:55 NW 8 10.00 Fair CLR 80.6 53.6 39% 80 29.92 0.0
31 13:35 N 7 10.00 Fair CLR 78.8 55.4 45% 79 29.92 0.0
31 13:15 NW 8 10.00 Fair CLR 78.8 55.4 45% 79 29.92 0.0
31 12:55 NW 6 10.00 Fair CLR 75.2 57.2 54% 78 29.93 0.0
31 12:35 W 6 10.00 Fair CLR 75.2 59 57% 78 29.93 0.0
31 12:15 NW 5 10.00 Fair CLR 75.2 60.8 61% 77 29.94 0.0
31 11:55 W 6 10.00 Fair CLR 73.4 57.2 57% 29.93 0.0
31 11:35 W 5 10.00 Fair CLR 71.6 60.8 69% 29.93 0.0
31 11:15 NW 6 10.00 Fair CLR 71.6 60.8 69% 29.93 0.0
31 10:55 W 6 10.00 Fair CLR 71.6 62.6 73% 29.93 0.0
31 10:35 W 3 10.00 Fair CLR 69.8 62.6 78% 29.93 0.0
31 10:15 NW 3 10.00 Fair CLR 69.8 62.6 78% 29.93 0.0
Date Time (cdt) Wind (mph) Vis. (mi.) Weather Sky Cond. Air Dwpt Max. Min. Relative Humidity Wind Chill (°F) Heat Index (°F) altimeter (in) sea level (mb) 1 hr 3 hr 6 hr
6 hour
Temperature (ºF) Pressure Precipitation (in)